sensor_id;sensor_type;location;lat;lon;timestamp;P1;durP1;ratioP1;P2;durP2;ratioP2
83634;SDS011;73596;49.482;11.238;2024-02-23T00:01:20;0.27;;;0.20;;
83634;SDS011;73596;49.482;11.238;2024-02-23T00:03:45;0.30;;;0.20;;
83634;SDS011;73596;49.482;11.238;2024-02-23T00:06:10;0.40;;;0.20;;
83634;SDS011;73596;49.482;11.238;2024-02-23T00:08:35;0.30;;;0.30;;
83634;SDS011;73596;49.482;11.238;2024-02-23T00:11:01;0.28;;;0.22;;
83634;SDS011;73596;49.482;11.238;2024-02-23T00:13:26;0.77;;;0.20;;
83634;SDS011;73596;49.482;11.238;2024-02-23T00:15:51;0.70;;;0.30;;
83634;SDS011;73596;49.482;11.238;2024-02-23T00:18:17;0.30;;;0.20;;
83634;SDS011;73596;49.482;11.238;2024-02-23T00:20:42;0.50;;;0.30;;
83634;SDS011;73596;49.482;11.238;2024-02-23T00:23:07;0.40;;;0.30;;
83634;SDS011;73596;49.482;11.238;2024-02-23T00:25:32;0.27;;;0.20;;
83634;SDS011;73596;49.482;11.238;2024-02-23T00:27:58;0.53;;;0.30;;
83634;SDS011;73596;49.482;11.238;2024-02-23T00:30:23;0.93;;;0.40;;
83634;SDS011;73596;49.482;11.238;2024-02-23T00:32:48;0.37;;;0.30;;
83634;SDS011;73596;49.482;11.238;2024-02-23T00:35:13;1.87;;;0.40;;
83634;SDS011;73596;49.482;11.238;2024-02-23T00:37:39;0.70;;;0.30;;
83634;SDS011;73596;49.482;11.238;2024-02-23T00:40:05;0.30;;;0.30;;
83634;SDS011;73596;49.482;11.238;2024-02-23T00:42:31;0.65;;;0.30;;
83634;SDS011;73596;49.482;11.238;2024-02-23T00:44:56;0.30;;;0.30;;
83634;SDS011;73596;49.482;11.238;2024-02-23T00:47:22;0.82;;;0.50;;
83634;SDS011;73596;49.482;11.238;2024-02-23T00:49:47;1.57;;;0.30;;
83634;SDS011;73596;49.482;11.238;2024-02-23T00:52:12;0.50;;;0.30;;
83634;SDS011;73596;49.482;11.238;2024-02-23T00:54:37;0.27;;;0.10;;
83634;SDS011;73596;49.482;11.238;2024-02-23T00:57:03;0.10;;;0.10;;
83634;SDS011;73596;49.482;11.238;2024-02-23T00:59:28;0.10;;;0.10;;
83634;SDS011;73596;49.482;11.238;2024-02-23T01:01:54;1.57;;;0.27;;
83634;SDS011;73596;49.482;11.238;2024-02-23T01:04:20;1.15;;;0.13;;
83634;SDS011;73596;49.482;11.238;2024-02-23T01:06:45;0.20;;;0.10;;
83634;SDS011;73596;49.482;11.238;2024-02-23T01:09:10;2.03;;;0.40;;
83634;SDS011;73596;49.482;11.238;2024-02-23T01:11:36;1.05;;;0.15;;
83634;SDS011;73596;49.482;11.238;2024-02-23T01:14:01;1.57;;;0.20;;
83634;SDS011;73596;49.482;11.238;2024-02-23T01:16:26;1.87;;;0.30;;
83634;SDS011;73596;49.482;11.238;2024-02-23T01:18:51;0.10;;;0.10;;
83634;SDS011;73596;49.482;11.238;2024-02-23T01:21:17;0.20;;;0.20;;
83634;SDS011;73596;49.482;11.238;2024-02-23T01:23:42;0.30;;;0.30;;
83634;SDS011;73596;49.482;11.238;2024-02-23T01:26:07;1.48;;;0.20;;
83634;SDS011;73596;49.482;11.238;2024-02-23T01:28:33;0.10;;;0.10;;
83634;SDS011;73596;49.482;11.238;2024-02-23T01:30:58;2.63;;;0.20;;
83634;SDS011;73596;49.482;11.238;2024-02-23T01:33:23;0.10;;;0.10;;
83634;SDS011;73596;49.482;11.238;2024-02-23T01:35:48;0.20;;;0.20;;
83634;SDS011;73596;49.482;11.238;2024-02-23T01:38:14;0.10;;;0.10;;
83634;SDS011;73596;49.482;11.238;2024-02-23T01:40:45;0.30;;;0.10;;
83634;SDS011;73596;49.482;11.238;2024-02-23T01:43:10;0.13;;;0.13;;
83634;SDS011;73596;49.482;11.238;2024-02-23T01:45:36;0.35;;;0.10;;
83634;SDS011;73596;49.482;11.238;2024-02-23T01:48:01;0.57;;;0.20;;
83634;SDS011;73596;49.482;11.238;2024-02-23T01:50:27;0.63;;;0.20;;
83634;SDS011;73596;49.482;11.238;2024-02-23T01:52:52;0.68;;;0.20;;
83634;SDS011;73596;49.482;11.238;2024-02-23T01:55:19;0.10;;;0.10;;
83634;SDS011;73596;49.482;11.238;2024-02-23T01:57:45;0.52;;;0.22;;
83634;SDS011;73596;49.482;11.238;2024-02-23T02:00:12;0.50;;;0.20;;
83634;SDS011;73596;49.482;11.238;2024-02-23T02:02:42;0.13;;;0.13;;
83634;SDS011;73596;49.482;11.238;2024-02-23T02:05:08;0.20;;;0.20;;
83634;SDS011;73596;49.482;11.238;2024-02-23T02:07:33;0.10;;;0.10;;
83634;SDS011;73596;49.482;11.238;2024-02-23T02:09:59;2.17;;;0.30;;
83634;SDS011;73596;49.482;11.238;2024-02-23T02:12:27;0.25;;;0.20;;
83634;SDS011;73596;49.482;11.238;2024-02-23T02:14:53;0.50;;;0.25;;
83634;SDS011;73596;49.482;11.238;2024-02-23T02:17:19;0.43;;;0.43;;
83634;SDS011;73596;49.482;11.238;2024-02-23T02:19:46;0.20;;;0.20;;
83634;SDS011;73596;49.482;11.238;2024-02-23T02:22:15;0.45;;;0.45;;
83634;SDS011;73596;49.482;11.238;2024-02-23T02:24:41;4.35;;;1.27;;
83634;SDS011;73596;49.482;11.238;2024-02-23T02:27:08;2.13;;;0.85;;
83634;SDS011;73596;49.482;11.238;2024-02-23T02:29:34;0.95;;;0.65;;
83634;SDS011;73596;49.482;11.238;2024-02-23T02:32:00;3.50;;;0.85;;
83634;SDS011;73596;49.482;11.238;2024-02-23T02:34:25;1.93;;;0.50;;
83634;SDS011;73596;49.482;11.238;2024-02-23T02:36:50;1.00;;;0.53;;
83634;SDS011;73596;49.482;11.238;2024-02-23T02:39:16;2.03;;;0.30;;
83634;SDS011;73596;49.482;11.238;2024-02-23T02:41:41;0.40;;;0.30;;
83634;SDS011;73596;49.482;11.238;2024-02-23T02:44:06;1.60;;;0.30;;
83634;SDS011;73596;49.482;11.238;2024-02-23T02:46:34;0.88;;;0.38;;
83634;SDS011;73596;49.482;11.238;2024-02-23T02:48:59;3.27;;;0.40;;
83634;SDS011;73596;49.482;11.238;2024-02-23T02:51:25;0.43;;;0.20;;
83634;SDS011;73596;49.482;11.238;2024-02-23T02:53:50;0.33;;;0.20;;
83634;SDS011;73596;49.482;11.238;2024-02-23T02:56:15;1.20;;;0.63;;
83634;SDS011;73596;49.482;11.238;2024-02-23T02:58:40;2.23;;;0.40;;
83634;SDS011;73596;49.482;11.238;2024-02-23T03:01:06;1.07;;;0.37;;
83634;SDS011;73596;49.482;11.238;2024-02-23T03:03:31;0.30;;;0.20;;
83634;SDS011;73596;49.482;11.238;2024-02-23T03:05:56;0.73;;;0.47;;
83634;SDS011;73596;49.482;11.238;2024-02-23T03:08:21;0.30;;;0.20;;
83634;SDS011;73596;49.482;11.238;2024-02-23T03:10:46;0.60;;;0.40;;
83634;SDS011;73596;49.482;11.238;2024-02-23T03:13:13;1.70;;;0.77;;
83634;SDS011;73596;49.482;11.238;2024-02-23T03:15:38;2.40;;;0.80;;
83634;SDS011;73596;49.482;11.238;2024-02-23T03:18:04;2.58;;;0.60;;
83634;SDS011;73596;49.482;11.238;2024-02-23T03:20:29;1.90;;;1.00;;
83634;SDS011;73596;49.482;11.238;2024-02-23T03:22:55;1.27;;;0.73;;
83634;SDS011;73596;49.482;11.238;2024-02-23T03:25:20;1.20;;;0.60;;
83634;SDS011;73596;49.482;11.238;2024-02-23T03:27:46;0.30;;;0.20;;
83634;SDS011;73596;49.482;11.238;2024-02-23T03:30:11;1.90;;;0.53;;
83634;SDS011;73596;49.482;11.238;2024-02-23T03:32:36;0.30;;;0.30;;
83634;SDS011;73596;49.482;11.238;2024-02-23T03:35:05;1.10;;;0.40;;
83634;SDS011;73596;49.482;11.238;2024-02-23T03:37:31;0.20;;;0.20;;
83634;SDS011;73596;49.482;11.238;2024-02-23T03:39:57;2.07;;;0.27;;
83634;SDS011;73596;49.482;11.238;2024-02-23T03:42:22;1.35;;;0.32;;
83634;SDS011;73596;49.482;11.238;2024-02-23T03:44:48;1.83;;;0.30;;
83634;SDS011;73596;49.482;11.238;2024-02-23T03:47:13;0.77;;;0.30;;
83634;SDS011;73596;49.482;11.238;2024-02-23T03:49:38;0.20;;;0.20;;
83634;SDS011;73596;49.482;11.238;2024-02-23T03:52:04;0.27;;;0.20;;
83634;SDS011;73596;49.482;11.238;2024-02-23T03:54:30;2.22;;;0.40;;
83634;SDS011;73596;49.482;11.238;2024-02-23T03:56:56;1.48;;;0.30;;
83634;SDS011;73596;49.482;11.238;2024-02-23T03:59:22;2.05;;;0.40;;
83634;SDS011;73596;49.482;11.238;2024-02-23T04:01:47;4.03;;;0.40;;
83634;SDS011;73596;49.482;11.238;2024-02-23T04:04:12;1.13;;;0.50;;
83634;SDS011;73596;49.482;11.238;2024-02-23T04:06:37;0.97;;;0.47;;
83634;SDS011;73596;49.482;11.238;2024-02-23T04:09:03;0.63;;;0.30;;
83634;SDS011;73596;49.482;11.238;2024-02-23T04:11:31;0.98;;;0.32;;
83634;SDS011;73596;49.482;11.238;2024-02-23T04:13:57;1.08;;;0.30;;
83634;SDS011;73596;49.482;11.238;2024-02-23T04:16:23;0.37;;;0.20;;
83634;SDS011;73596;49.482;11.238;2024-02-23T04:18:49;1.10;;;0.20;;
83634;SDS011;73596;49.482;11.238;2024-02-23T04:21:15;0.63;;;0.32;;
83634;SDS011;73596;49.482;11.238;2024-02-23T04:23:40;1.80;;;0.30;;
83634;SDS011;73596;49.482;11.238;2024-02-23T04:26:05;1.20;;;0.13;;
83634;SDS011;73596;49.482;11.238;2024-02-23T04:28:31;0.80;;;0.37;;
83634;SDS011;73596;49.482;11.238;2024-02-23T04:30:58;1.33;;;0.30;;
83634;SDS011;73596;49.482;11.238;2024-02-23T04:33:23;0.60;;;0.40;;
83634;SDS011;73596;49.482;11.238;2024-02-23T04:35:49;0.50;;;0.27;;
83634;SDS011;73596;49.482;11.238;2024-02-23T04:38:14;0.20;;;0.20;;
83634;SDS011;73596;49.482;11.238;2024-02-23T04:40:39;1.63;;;0.40;;
83634;SDS011;73596;49.482;11.238;2024-02-23T04:43:04;0.57;;;0.30;;
83634;SDS011;73596;49.482;11.238;2024-02-23T04:45:30;2.13;;;0.47;;
83634;SDS011;73596;49.482;11.238;2024-02-23T04:47:55;0.50;;;0.40;;
83634;SDS011;73596;49.482;11.238;2024-02-23T04:50:20;1.10;;;0.30;;
83634;SDS011;73596;49.482;11.238;2024-02-23T04:52:46;2.10;;;0.53;;
83634;SDS011;73596;49.482;11.238;2024-02-23T04:55:11;1.93;;;0.47;;
83634;SDS011;73596;49.482;11.238;2024-02-23T04:57:36;1.00;;;0.53;;
83634;SDS011;73596;49.482;11.238;2024-02-23T05:00:02;3.17;;;0.68;;
83634;SDS011;73596;49.482;11.238;2024-02-23T05:02:28;2.10;;;0.75;;
83634;SDS011;73596;49.482;11.238;2024-02-23T05:07:24;1.53;;;0.40;;
83634;SDS011;73596;49.482;11.238;2024-02-23T05:09:49;1.33;;;0.73;;
83634;SDS011;73596;49.482;11.238;2024-02-23T05:12:14;2.83;;;1.10;;
83634;SDS011;73596;49.482;11.238;2024-02-23T05:14:39;3.07;;;1.07;;
83634;SDS011;73596;49.482;11.238;2024-02-23T05:17:05;5.70;;;1.27;;
83634;SDS011;73596;49.482;11.238;2024-02-23T05:19:30;2.05;;;0.60;;
83634;SDS011;73596;49.482;11.238;2024-02-23T05:21:55;1.37;;;0.53;;
83634;SDS011;73596;49.482;11.238;2024-02-23T05:24:20;2.03;;;0.60;;
83634;SDS011;73596;49.482;11.238;2024-02-23T05:26:46;1.87;;;0.60;;
83634;SDS011;73596;49.482;11.238;2024-02-23T05:29:11;2.73;;;0.50;;
83634;SDS011;73596;49.482;11.238;2024-02-23T05:31:44;4.68;;;0.70;;
83634;SDS011;73596;49.482;11.238;2024-02-23T05:34:19;1.95;;;0.63;;
83634;SDS011;73596;49.482;11.238;2024-02-23T05:36:45;1.15;;;0.20;;
83634;SDS011;73596;49.482;11.238;2024-02-23T05:39:14;1.80;;;0.70;;
83634;SDS011;73596;49.482;11.238;2024-02-23T05:41:40;2.70;;;0.68;;
83634;SDS011;73596;49.482;11.238;2024-02-23T05:44:06;1.02;;;0.40;;
83634;SDS011;73596;49.482;11.238;2024-02-23T05:46:32;1.77;;;0.75;;
83634;SDS011;73596;49.482;11.238;2024-02-23T05:48:59;1.40;;;0.65;;
83634;SDS011;73596;49.482;11.238;2024-02-23T05:51:24;2.05;;;0.73;;
83634;SDS011;73596;49.482;11.238;2024-02-23T05:53:50;10.83;;;2.57;;
83634;SDS011;73596;49.482;11.238;2024-02-23T05:56:15;8.17;;;2.13;;
83634;SDS011;73596;49.482;11.238;2024-02-23T05:58:40;12.02;;;1.60;;
83634;SDS011;73596;49.482;11.238;2024-02-23T06:01:05;4.40;;;1.33;;
83634;SDS011;73596;49.482;11.238;2024-02-23T06:03:32;0.40;;;0.30;;
83634;SDS011;73596;49.482;11.238;2024-02-23T06:05:57;2.45;;;0.28;;
83634;SDS011;73596;49.482;11.238;2024-02-23T06:08:23;2.08;;;0.57;;
83634;SDS011;73596;49.482;11.238;2024-02-23T06:10:48;0.70;;;0.30;;
83634;SDS011;73596;49.482;11.238;2024-02-23T06:13:13;1.17;;;0.50;;
83634;SDS011;73596;49.482;11.238;2024-02-23T06:15:39;1.27;;;0.47;;
83634;SDS011;73596;49.482;11.238;2024-02-23T06:18:04;0.50;;;0.20;;
83634;SDS011;73596;49.482;11.238;2024-02-23T06:20:30;0.30;;;0.20;;
83634;SDS011;73596;49.482;11.238;2024-02-23T06:22:55;1.53;;;0.40;;
83634;SDS011;73596;49.482;11.238;2024-02-23T06:25:21;0.63;;;0.40;;
83634;SDS011;73596;49.482;11.238;2024-02-23T06:27:46;0.20;;;0.20;;
83634;SDS011;73596;49.482;11.238;2024-02-23T06:30:11;0.10;;;0.10;;
83634;SDS011;73596;49.482;11.238;2024-02-23T06:32:36;0.88;;;0.30;;
83634;SDS011;73596;49.482;11.238;2024-02-23T06:35:02;2.60;;;0.50;;
83634;SDS011;73596;49.482;11.238;2024-02-23T06:37:28;0.57;;;0.30;;
83634;SDS011;73596;49.482;11.238;2024-02-23T06:39:53;1.15;;;0.30;;
83634;SDS011;73596;49.482;11.238;2024-02-23T06:42:20;0.40;;;0.40;;
83634;SDS011;73596;49.482;11.238;2024-02-23T06:44:45;1.50;;;0.30;;
83634;SDS011;73596;49.482;11.238;2024-02-23T06:47:11;0.60;;;0.40;;
83634;SDS011;73596;49.482;11.238;2024-02-23T06:49:37;2.08;;;0.50;;
83634;SDS011;73596;49.482;11.238;2024-02-23T06:52:02;0.67;;;0.30;;
83634;SDS011;73596;49.482;11.238;2024-02-23T06:54:28;0.50;;;0.50;;
83634;SDS011;73596;49.482;11.238;2024-02-23T06:56:53;0.47;;;0.30;;
83634;SDS011;73596;49.482;11.238;2024-02-23T06:59:19;0.40;;;0.40;;
83634;SDS011;73596;49.482;11.238;2024-02-23T07:01:50;0.60;;;0.30;;
83634;SDS011;73596;49.482;11.238;2024-02-23T07:04:17;1.98;;;0.40;;
83634;SDS011;73596;49.482;11.238;2024-02-23T07:06:43;0.52;;;0.30;;
83634;SDS011;73596;49.482;11.238;2024-02-23T07:09:08;0.77;;;0.20;;
83634;SDS011;73596;49.482;11.238;2024-02-23T07:11:34;1.38;;;0.50;;
83634;SDS011;73596;49.482;11.238;2024-02-23T07:13:59;0.73;;;0.20;;
83634;SDS011;73596;49.482;11.238;2024-02-23T07:16:24;0.10;;;0.10;;
83634;SDS011;73596;49.482;11.238;2024-02-23T07:18:49;1.70;;;0.20;;
83634;SDS011;73596;49.482;11.238;2024-02-23T07:21:17;2.43;;;0.23;;
83634;SDS011;73596;49.482;11.238;2024-02-23T07:23:43;1.17;;;0.40;;
83634;SDS011;73596;49.482;11.238;2024-02-23T07:26:08;0.40;;;0.30;;
83634;SDS011;73596;49.482;11.238;2024-02-23T07:28:33;0.80;;;0.40;;
83634;SDS011;73596;49.482;11.238;2024-02-23T07:30:58;0.47;;;0.20;;
83634;SDS011;73596;49.482;11.238;2024-02-23T07:33:24;1.17;;;0.40;;
83634;SDS011;73596;49.482;11.238;2024-02-23T07:35:49;0.40;;;0.37;;
83634;SDS011;73596;49.482;11.238;2024-02-23T07:38:14;0.53;;;0.23;;
83634;SDS011;73596;49.482;11.238;2024-02-23T07:40:39;0.57;;;0.30;;
83634;SDS011;73596;49.482;11.238;2024-02-23T07:43:05;0.30;;;0.30;;
83634;SDS011;73596;49.482;11.238;2024-02-23T07:45:30;0.20;;;0.20;;
83634;SDS011;73596;49.482;11.238;2024-02-23T07:47:55;0.90;;;0.40;;
83634;SDS011;73596;49.482;11.238;2024-02-23T07:50:21;2.75;;;0.38;;
83634;SDS011;73596;49.482;11.238;2024-02-23T07:52:46;0.50;;;0.33;;
83634;SDS011;73596;49.482;11.238;2024-02-23T07:55:11;1.43;;;0.30;;
83634;SDS011;73596;49.482;11.238;2024-02-23T07:57:37;0.70;;;0.30;;
83634;SDS011;73596;49.482;11.238;2024-02-23T08:00:04;2.03;;;0.40;;
83634;SDS011;73596;49.482;11.238;2024-02-23T08:02:32;0.30;;;0.30;;
83634;SDS011;73596;49.482;11.238;2024-02-23T08:04:57;1.43;;;0.50;;
83634;SDS011;73596;49.482;11.238;2024-02-23T08:07:22;1.03;;;0.50;;
83634;SDS011;73596;49.482;11.238;2024-02-23T08:09:48;2.35;;;0.25;;
83634;SDS011;73596;49.482;11.238;2024-02-23T08:12:13;0.23;;;0.23;;
83634;SDS011;73596;49.482;11.238;2024-02-23T08:14:38;0.40;;;0.20;;
83634;SDS011;73596;49.482;11.238;2024-02-23T08:17:04;0.90;;;0.20;;
83634;SDS011;73596;49.482;11.238;2024-02-23T08:19:29;2.75;;;0.38;;
83634;SDS011;73596;49.482;11.238;2024-02-23T08:21:55;0.75;;;0.30;;
83634;SDS011;73596;49.482;11.238;2024-02-23T08:24:22;1.00;;;0.60;;
83634;SDS011;73596;49.482;11.238;2024-02-23T08:26:47;0.50;;;0.40;;
83634;SDS011;73596;49.482;11.238;2024-02-23T08:29:13;3.67;;;0.52;;
83634;SDS011;73596;49.482;11.238;2024-02-23T08:31:38;0.30;;;0.30;;
83634;SDS011;73596;49.482;11.238;2024-02-23T08:34:03;0.67;;;0.30;;
83634;SDS011;73596;49.482;11.238;2024-02-23T08:36:28;0.20;;;0.10;;
83634;SDS011;73596;49.482;11.238;2024-02-23T08:38:54;0.77;;;0.30;;
83634;SDS011;73596;49.482;11.238;2024-02-23T08:41:19;0.33;;;0.33;;
83634;SDS011;73596;49.482;11.238;2024-02-23T08:43:44;0.37;;;0.27;;
83634;SDS011;73596;49.482;11.238;2024-02-23T08:46:09;2.17;;;0.30;;
83634;SDS011;73596;49.482;11.238;2024-02-23T08:48:35;0.13;;;0.10;;
83634;SDS011;73596;49.482;11.238;2024-02-23T08:51:00;0.40;;;0.37;;
83634;SDS011;73596;49.482;11.238;2024-02-23T08:53:25;3.27;;;0.57;;
83634;SDS011;73596;49.482;11.238;2024-02-23T08:55:51;1.27;;;0.43;;
83634;SDS011;73596;49.482;11.238;2024-02-23T08:58:16;0.73;;;0.40;;
83634;SDS011;73596;49.482;11.238;2024-02-23T09:00:41;2.07;;;0.40;;
83634;SDS011;73596;49.482;11.238;2024-02-23T09:03:06;0.27;;;0.10;;
83634;SDS011;73596;49.482;11.238;2024-02-23T09:05:32;0.50;;;0.30;;
83634;SDS011;73596;49.482;11.238;2024-02-23T09:07:57;0.30;;;0.30;;
83634;SDS011;73596;49.482;11.238;2024-02-23T09:10:22;1.10;;;0.37;;
83634;SDS011;73596;49.482;11.238;2024-02-23T09:12:47;0.67;;;0.30;;
83634;SDS011;73596;49.482;11.238;2024-02-23T09:15:13;0.67;;;0.30;;
83634;SDS011;73596;49.482;11.238;2024-02-23T09:17:39;0.80;;;0.50;;
83634;SDS011;73596;49.482;11.238;2024-02-23T09:20:05;0.60;;;0.40;;
83634;SDS011;73596;49.482;11.238;2024-02-23T09:22:32;0.77;;;0.40;;
83634;SDS011;73596;49.482;11.238;2024-02-23T09:24:57;0.73;;;0.30;;
83634;SDS011;73596;49.482;11.238;2024-02-23T09:27:23;1.00;;;0.40;;
83634;SDS011;73596;49.482;11.238;2024-02-23T09:29:48;4.23;;;0.43;;
83634;SDS011;73596;49.482;11.238;2024-02-23T09:32:13;0.28;;;0.20;;
83634;SDS011;73596;49.482;11.238;2024-02-23T09:34:39;2.43;;;0.23;;
83634;SDS011;73596;49.482;11.238;2024-02-23T09:37:04;3.97;;;0.47;;
83634;SDS011;73596;49.482;11.238;2024-02-23T09:39:29;0.40;;;0.30;;
83634;SDS011;73596;49.482;11.238;2024-02-23T09:41:55;1.65;;;0.52;;
83634;SDS011;73596;49.482;11.238;2024-02-23T09:44:24;1.60;;;0.40;;
83634;SDS011;73596;49.482;11.238;2024-02-23T09:46:57;0.57;;;0.40;;
83634;SDS011;73596;49.482;11.238;2024-02-23T09:49:23;0.88;;;0.40;;
83634;SDS011;73596;49.482;11.238;2024-02-23T09:51:48;1.55;;;0.40;;
83634;SDS011;73596;49.482;11.238;2024-02-23T09:54:13;0.23;;;0.23;;
83634;SDS011;73596;49.482;11.238;2024-02-23T09:56:39;0.53;;;0.30;;
83634;SDS011;73596;49.482;11.238;2024-02-23T09:59:04;0.38;;;0.20;;
83634;SDS011;73596;49.482;11.238;2024-02-23T10:01:30;0.93;;;0.30;;
83634;SDS011;73596;49.482;11.238;2024-02-23T10:03:57;0.57;;;0.22;;
83634;SDS011;73596;49.482;11.238;2024-02-23T10:06:26;0.85;;;0.32;;
83634;SDS011;73596;49.482;11.238;2024-02-23T10:08:52;3.10;;;0.50;;
83634;SDS011;73596;49.482;11.238;2024-02-23T10:11:20;0.10;;;0.10;;
83634;SDS011;73596;49.482;11.238;2024-02-23T10:13:50;1.50;;;0.47;;
83634;SDS011;73596;49.482;11.238;2024-02-23T10:18:42;2.07;;;0.33;;
83634;SDS011;73596;49.482;11.238;2024-02-23T10:21:07;0.57;;;0.20;;
83634;SDS011;73596;49.482;11.238;2024-02-23T10:23:32;0.47;;;0.30;;
83634;SDS011;73596;49.482;11.238;2024-02-23T10:25:58;0.13;;;0.13;;
83634;SDS011;73596;49.482;11.238;2024-02-23T10:28:23;0.10;;;0.10;;
83634;SDS011;73596;49.482;11.238;2024-02-23T10:30:48;0.77;;;0.20;;
83634;SDS011;73596;49.482;11.238;2024-02-23T10:33:14;0.20;;;0.20;;
83634;SDS011;73596;49.482;11.238;2024-02-23T10:35:39;0.90;;;0.38;;
83634;SDS011;73596;49.482;11.238;2024-02-23T10:38:07;0.20;;;0.17;;
83634;SDS011;73596;49.482;11.238;2024-02-23T10:40:34;0.20;;;0.20;;
83634;SDS011;73596;49.482;11.238;2024-02-23T10:43:05;0.35;;;0.25;;
83634;SDS011;73596;49.482;11.238;2024-02-23T10:45:38;0.20;;;0.20;;
83634;SDS011;73596;49.482;11.238;2024-02-23T10:48:05;0.70;;;0.22;;
83634;SDS011;73596;49.482;11.238;2024-02-23T10:50:33;1.13;;;0.25;;
83634;SDS011;73596;49.482;11.238;2024-02-23T10:53:00;0.20;;;0.20;;
83634;SDS011;73596;49.482;11.238;2024-02-23T10:55:25;0.30;;;0.30;;
83634;SDS011;73596;49.482;11.238;2024-02-23T10:57:53;1.58;;;0.50;;
83634;SDS011;73596;49.482;11.238;2024-02-23T11:00:21;1.15;;;0.30;;
83634;SDS011;73596;49.482;11.238;2024-02-23T11:02:48;1.48;;;0.47;;
83634;SDS011;73596;49.482;11.238;2024-02-23T11:05:16;0.30;;;0.20;;
83634;SDS011;73596;49.482;11.238;2024-02-23T11:07:43;1.23;;;0.30;;
83634;SDS011;73596;49.482;11.238;2024-02-23T11:10:13;0.50;;;0.30;;
83634;SDS011;73596;49.482;11.238;2024-02-23T11:12:38;0.10;;;0.10;;
83634;SDS011;73596;49.482;11.238;2024-02-23T11:15:04;1.93;;;0.50;;
83634;SDS011;73596;49.482;11.238;2024-02-23T11:17:30;0.20;;;0.20;;
83634;SDS011;73596;49.482;11.238;2024-02-23T11:19:56;1.00;;;0.30;;
83634;SDS011;73596;49.482;11.238;2024-02-23T11:22:25;0.55;;;0.20;;
83634;SDS011;73596;49.482;11.238;2024-02-23T11:25:04;1.60;;;0.32;;
83634;SDS011;73596;49.482;11.238;2024-02-23T11:27:34;1.02;;;0.40;;
83634;SDS011;73596;49.482;11.238;2024-02-23T11:30:04;1.15;;;0.20;;
83634;SDS011;73596;49.482;11.238;2024-02-23T11:32:36;0.75;;;0.30;;
83634;SDS011;73596;49.482;11.238;2024-02-23T11:37:30;0.43;;;0.22;;
83634;SDS011;73596;49.482;11.238;2024-02-23T11:39:55;0.55;;;0.20;;
83634;SDS011;73596;49.482;11.238;2024-02-23T11:42:23;1.73;;;0.60;;
83634;SDS011;73596;49.482;11.238;2024-02-23T11:44:49;0.80;;;0.60;;
83634;SDS011;73596;49.482;11.238;2024-02-23T11:47:16;0.70;;;0.32;;
83634;SDS011;73596;49.482;11.238;2024-02-23T11:49:42;0.70;;;0.30;;
83634;SDS011;73596;49.482;11.238;2024-02-23T11:52:07;0.40;;;0.20;;
83634;SDS011;73596;49.482;11.238;2024-02-23T11:54:32;1.10;;;0.20;;
83634;SDS011;73596;49.482;11.238;2024-02-23T11:56:58;0.30;;;0.30;;
83634;SDS011;73596;49.482;11.238;2024-02-23T11:59:25;0.63;;;0.20;;
83634;SDS011;73596;49.482;11.238;2024-02-23T12:01:50;0.10;;;0.10;;
83634;SDS011;73596;49.482;11.238;2024-02-23T12:04:16;0.32;;;0.30;;
83634;SDS011;73596;49.482;11.238;2024-02-23T12:06:44;0.20;;;0.10;;
83634;SDS011;73596;49.482;11.238;2024-02-23T12:09:10;0.13;;;0.13;;
83634;SDS011;73596;49.482;11.238;2024-02-23T12:11:37;0.15;;;0.15;;
83634;SDS011;73596;49.482;11.238;2024-02-23T12:14:03;1.33;;;0.30;;
83634;SDS011;73596;49.482;11.238;2024-02-23T12:16:34;2.70;;;0.60;;
83634;SDS011;73596;49.482;11.238;2024-02-23T12:19:01;1.83;;;0.40;;
83634;SDS011;73596;49.482;11.238;2024-02-23T12:21:27;0.70;;;0.38;;
83634;SDS011;73596;49.482;11.238;2024-02-23T12:23:53;0.90;;;0.30;;
83634;SDS011;73596;49.482;11.238;2024-02-23T12:26:18;0.30;;;0.15;;
83634;SDS011;73596;49.482;11.238;2024-02-23T12:28:44;0.75;;;0.38;;
83634;SDS011;73596;49.482;11.238;2024-02-23T12:31:10;1.27;;;0.30;;
83634;SDS011;73596;49.482;11.238;2024-02-23T12:33:36;0.80;;;0.40;;
83634;SDS011;73596;49.482;11.238;2024-02-23T12:36:03;0.30;;;0.10;;
83634;SDS011;73596;49.482;11.238;2024-02-23T12:38:30;2.10;;;0.35;;
83634;SDS011;73596;49.482;11.238;2024-02-23T12:40:56;1.08;;;0.20;;
83634;SDS011;73596;49.482;11.238;2024-02-23T12:43:21;1.10;;;0.40;;
83634;SDS011;73596;49.482;11.238;2024-02-23T12:45:49;3.67;;;0.47;;
83634;SDS011;73596;49.482;11.238;2024-02-23T12:48:15;0.52;;;0.30;;
83634;SDS011;73596;49.482;11.238;2024-02-23T12:50:41;0.32;;;0.30;;
83634;SDS011;73596;49.482;11.238;2024-02-23T12:53:07;0.73;;;0.35;;
83634;SDS011;73596;49.482;11.238;2024-02-23T12:55:33;0.43;;;0.20;;
83634;SDS011;73596;49.482;11.238;2024-02-23T12:57:59;0.85;;;0.30;;
83634;SDS011;73596;49.482;11.238;2024-02-23T13:00:24;0.40;;;0.20;;
83634;SDS011;73596;49.482;11.238;2024-02-23T13:02:49;0.20;;;0.20;;
83634;SDS011;73596;49.482;11.238;2024-02-23T13:05:15;0.23;;;0.20;;
83634;SDS011;73596;49.482;11.238;2024-02-23T13:07:40;0.55;;;0.30;;
83634;SDS011;73596;49.482;11.238;2024-02-23T13:10:07;0.35;;;0.30;;
83634;SDS011;73596;49.482;11.238;2024-02-23T13:12:32;1.15;;;0.38;;
83634;SDS011;73596;49.482;11.238;2024-02-23T13:14:58;0.97;;;0.40;;
83634;SDS011;73596;49.482;11.238;2024-02-23T13:17:23;0.77;;;0.40;;
83634;SDS011;73596;49.482;11.238;2024-02-23T13:19:48;1.70;;;0.30;;
83634;SDS011;73596;49.482;11.238;2024-02-23T13:22:13;0.20;;;0.20;;
83634;SDS011;73596;49.482;11.238;2024-02-23T13:24:39;0.93;;;0.60;;
83634;SDS011;73596;49.482;11.238;2024-02-23T13:27:05;0.30;;;0.20;;
83634;SDS011;73596;49.482;11.238;2024-02-23T13:29:31;0.80;;;0.40;;
83634;SDS011;73596;49.482;11.238;2024-02-23T13:31:56;1.07;;;0.33;;
83634;SDS011;73596;49.482;11.238;2024-02-23T13:34:21;1.92;;;0.50;;
83634;SDS011;73596;49.482;11.238;2024-02-23T13:36:46;0.30;;;0.23;;
83634;SDS011;73596;49.482;11.238;2024-02-23T13:39:13;2.28;;;0.50;;
83634;SDS011;73596;49.482;11.238;2024-02-23T13:41:38;1.90;;;0.30;;
83634;SDS011;73596;49.482;11.238;2024-02-23T13:44:04;0.50;;;0.20;;
83634;SDS011;73596;49.482;11.238;2024-02-23T13:46:29;0.32;;;0.30;;
83634;SDS011;73596;49.482;11.238;2024-02-23T13:49:05;0.70;;;0.55;;
83634;SDS011;73596;49.482;11.238;2024-02-23T13:51:32;0.98;;;0.30;;
83634;SDS011;73596;49.482;11.238;2024-02-23T13:53:57;0.93;;;0.30;;
83634;SDS011;73596;49.482;11.238;2024-02-23T13:56:23;0.47;;;0.30;;
83634;SDS011;73596;49.482;11.238;2024-02-23T13:58:48;0.83;;;0.27;;
83634;SDS011;73596;49.482;11.238;2024-02-23T14:01:14;0.20;;;0.20;;
83634;SDS011;73596;49.482;11.238;2024-02-23T14:03:39;0.75;;;0.38;;
83634;SDS011;73596;49.482;11.238;2024-02-23T14:06:05;2.93;;;0.60;;
83634;SDS011;73596;49.482;11.238;2024-02-23T14:08:30;0.43;;;0.33;;
83634;SDS011;73596;49.482;11.238;2024-02-23T14:10:58;1.38;;;0.55;;
83634;SDS011;73596;49.482;11.238;2024-02-23T14:13:24;0.27;;;0.17;;
83634;SDS011;73596;49.482;11.238;2024-02-23T14:15:49;0.30;;;0.30;;
83634;SDS011;73596;49.482;11.238;2024-02-23T14:18:14;0.93;;;0.33;;
83634;SDS011;73596;49.482;11.238;2024-02-23T14:20:42;2.60;;;0.70;;
83634;SDS011;73596;49.482;11.238;2024-02-23T14:23:08;0.22;;;0.22;;
83634;SDS011;73596;49.482;11.238;2024-02-23T14:25:33;0.30;;;0.20;;
83634;SDS011;73596;49.482;11.238;2024-02-23T14:27:58;0.17;;;0.17;;
83634;SDS011;73596;49.482;11.238;2024-02-23T14:30:24;0.23;;;0.20;;
83634;SDS011;73596;49.482;11.238;2024-02-23T14:32:49;0.37;;;0.20;;